Terminal Aerodrome Forecast
Issued by NWS

Current Version | Previous Version | Text Only | Print | Product List | Glossary Off
Versions: 1 2 3 4 5 6 7 8 9 10 11 12 13 14 15 16 17 18 19 20 21 22 23 24 25

000
FTUS41 KRLX 302300 RRA
TAFCKB
TAF
KCKB 302346Z 3100/3124 VRB03KT P6SM SCT250
     FM310900 21005KT P6SM VCSH BKN060 PROB30 3109/3111 4SM -TSRA
      OVC050CB
     FM311800 23008KT 3SM SHRA VCTS OVC040CB PROB30 3118/3120 2SM
      -TSRA OVC050CB
     FM312000 22008KT 6SM -SHRA OVC045=

USA.gov is the U.S. government's official web portal to all federal, state and local government web resources and services.